Portada
METAR-TAF:

METAR-TAF

Aeroports :

Aeroport de Can Tho

Cần Thơ, Vietnam

latitud: 10-05-07N, longitud: 105-42-43E, altitud: 3 m

Observació

L'informe es va fer fa 21 minuts, a les 07:00 UTC
Vent 3 kt del Nord-Est
Temperatura 33°C
Humitat 59%
Pressió 1007 hPa
Visibilitat 10 km o més
Núvols disperses a una alçada de 1500 ft

METAR: VVCT 230700Z 04003KT 9999 SCT015 33/24 Q1007 NOSIG

Hora: 14:21 (07:21 UTC)

Pronòstic

L'informe es va fer fa 2 hores i 21 minuts, a les 05:00 UTC
Pronòstic vàlid del 23 a les 06 UTC al 24 a les 06 UTC
Vent 5 kt amb direcció variable
Visibilitat 10 km o més
Núvols disperses a una alçada de 1500 ft

TAF: VVCT 230500Z 2306/2406 VRB05KT 9999 SCT015

Observacions i pronòstics meteorològics de més de 4000 aeroports (METAR i TAF).

Les estacions disponibles són els punts grocs i vermells al mapa.

Posi el ratolí al punt desitjat per veure el nom de l'estació.

Feu clic per veure les observacions i els pronòstics meteorològics.

Per canviar el mapa: feu clic els botons verds amb una creu de color negre per apropar; al botó verd amb un guió per allunyar la imatge; o en les fletxes verdes per a mapes adjacents.


METAR-TAF: